Time;durP1;ratioP1;P1;durP2;ratioP2;P2;SDS_P1;SDS_P2;PMS_P1;PMS_P2;Temp;Humidity;BMP_temperature;BMP_pressure;BME280_temperature;BME280_humidity;BME280_pressure;Samples;Min_cycle;Max_cycle;Signal;HPM_P1;HPM_P2
2021/01/04 00:00:09;;;;;;;13.32;10.05;;;4.70;92.70;;;;;;4995330;28;20037;-73
2021/01/04 00:02:41;;;;;;;12.52;9.48;;;4.70;92.70;;;;;;4996304;28;20026;-72
2021/01/04 00:05:31;;;;;;;13.50;10.20;;;4.70;92.80;;;;;;4995881;28;20438;-68
2021/01/04 00:08:35;;;;;;;14.48;9.77;;;4.70;92.70;;;;;;4995939;28;20088;-68
2021/01/04 00:11:28;;;;;;;12.48;9.40;;;4.60;92.80;;;;;;4945898;28;20085;-67
2021/01/04 00:14:13;;;;;;;14.48;11.13;;;4.50;92.90;;;;;;4994714;28;20462;-71
2021/01/04 00:17:02;;;;;;;13.02;9.48;;;4.50;93.00;;;;;;4995977;28;20030;-69
2021/01/04 00:19:42;;;;;;;13.57;9.88;;;4.50;93.20;;;;;;4994932;28;20026;-69
2021/01/04 00:22:27;;;;;;;14.43;10.55;;;4.60;93.10;;;;;;4994136;28;20427;-72
2021/01/04 00:25:23;;;;;;;14.32;10.07;;;4.60;93.10;;;;;;4995640;28;20031;-69
2021/01/04 00:27:58;;;;;;;15.32;10.40;;;4.70;93.20;;;;;;4994875;28;20042;-67
2021/01/04 00:30:36;;;;;;;15.55;10.13;;;4.70;93.30;;;;;;4995630;28;20041;-67
2021/01/04 00:33:08;;;;;;;14.27;8.98;;;4.70;93.00;;;;;;4995393;28;20054;-67
2021/01/04 00:35:34;;;;;;;12.00;9.30;;;4.80;93.10;;;;;;4994876;28;20105;-67
2021/01/04 00:38:08;;;;;;;11.77;9.43;;;4.80;93.10;;;;;;4977785;28;20118;-67
2021/01/04 00:41:06;;;;;;;11.30;8.77;;;4.80;93.00;;;;;;4994945;28;20022;-69
2021/01/04 00:43:39;;;;;;;11.52;8.23;;;4.80;93.00;;;;;;4978017;28;20033;-66
2021/01/04 00:46:06;;;;;;;12.50;10.02;;;4.80;92.90;;;;;;4994845;28;20037;-67
2021/01/04 00:48:44;;;;;;;12.75;9.43;;;4.70;92.90;;;;;;4994657;28;20030;-68
2021/01/04 00:51:41;;;;;;;13.30;9.75;;;4.80;93.00;;;;;;4995232;28;20057;-72
2021/01/04 00:54:41;;;;;;;12.32;8.98;;;4.80;93.00;;;;;;4995152;28;20031;-73
2021/01/04 00:57:34;;;;;;;11.98;9.20;;;4.80;92.90;;;;;;4994972;28;20430;-72
2021/01/04 01:00:25;;;;;;;13.15;8.48;;;4.80;93.00;;;;;;4995254;28;20033;-72
2021/01/04 01:03:09;;;;;;;12.68;9.10;;;4.80;92.80;;;;;;4989511;28;20089;-72
2021/01/04 01:06:11;;;;;;;12.98;8.77;;;4.80;92.90;;;;;;4995064;28;20031;-67
2021/01/04 01:08:38;;;;;;;12.30;9.20;;;4.80;92.90;;;;;;4995152;28;20033;-69
2021/01/04 01:11:14;;;;;;;12.40;8.63;;;4.90;92.90;;;;;;4997983;28;20010;-67
2021/01/04 01:13:51;;;;;;;12.10;8.23;;;4.90;92.80;;;;;;5010721;28;20034;-69
2021/01/04 01:16:29;;;;;;;13.27;8.73;;;4.80;92.90;;;;;;5010445;28;20414;-72
2021/01/04 01:19:32;;;;;;;12.50;8.40;;;4.80;92.80;;;;;;5011742;28;20014;-66
2021/01/04 01:21:58;;;;;;;10.63;8.32;;;4.80;92.80;;;;;;5012800;28;20517;-68
2021/01/04 01:24:25;;;;;;;11.50;8.50;;;4.80;92.90;;;;;;5013387;28;20057;-67
2021/01/04 01:27:02;;;;;;;12.00;8.50;;;4.80;92.90;;;;;;5013519;28;20045;-66
2021/01/04 01:29:51;;;;;;;12.23;9.18;;;4.80;92.90;;;;;;5013021;28;20029;-68
2021/01/04 01:32:51;;;;;;;12.43;9.13;;;4.80;93.00;;;;;;4992854;28;20031;-67
2021/01/04 01:36:00;;;;;;;10.02;7.43;;;4.80;93.00;;;;;;4992879;28;20026;-68
2021/01/04 01:38:53;;;;;;;11.27;8.25;;;4.80;92.90;;;;;;4974222;28;20121;-67
2021/01/04 01:41:27;;;;;;;11.20;8.15;;;4.80;92.90;;;;;;4993955;28;20037;-67
2021/01/04 01:44:27;;;;;;;12.13;8.82;;;4.80;93.00;;;;;;4993653;28;20031;-67
2021/01/04 01:47:07;;;;;;;11.63;7.80;;;4.80;92.70;;;;;;4994056;28;20039;-67
2021/01/04 01:50:01;;;;;;;10.40;8.02;;;4.80;92.80;;;;;;4994197;28;20022;-66
2021/01/04 01:52:35;;;;;;;10.05;8.20;;;4.70;92.90;;;;;;4993130;28;20027;-67
2021/01/04 01:55:19;;;;;;;9.43;7.55;;;4.70;93.00;;;;;;4994027;28;20433;-67
2021/01/04 01:58:07;;;;;;;9.95;8.18;;;4.70;93.10;;;;;;4993656;28;20080;-66
2021/01/04 02:00:41;;;;;;;10.52;7.30;;;4.70;93.20;;;;;;4994091;28;20022;-66
2021/01/04 02:03:15;;;;;;;9.20;7.55;;;4.70;93.20;;;;;;4993558;28;20025;-66
2021/01/04 02:06:05;;;;;;;9.52;7.65;;;4.70;93.20;;;;;;4993211;28;20039;-66
2021/01/04 02:08:39;;;;;;;9.82;7.78;;;4.70;93.20;;;;;;4994136;28;20022;-66
2021/01/04 02:11:10;;;;;;;10.35;7.35;;;4.70;93.30;;;;;;4993594;28;20036;-68
2021/01/04 02:13:48;;;;;;;9.50;6.90;;;4.70;93.30;;;;;;4993092;28;20023;-69
2021/01/04 02:16:23;;;;;;;8.75;6.82;;;4.70;93.20;;;;;;4993614;28;20019;-68
2021/01/04 02:19:26;;;;;;;10.38;7.03;;;4.70;93.20;;;;;;4993582;28;20033;-67
2021/01/04 02:22:42;;;;;;;9.52;7.40;;;4.70;93.30;;;;;;4993515;28;20177;-67
2021/01/04 02:25:08;;;;;;;8.20;6.47;;;4.70;93.30;;;;;;4956949;28;20124;-67
2021/01/04 02:27:38;;;;;;;8.90;7.43;;;4.80;93.40;;;;;;4992624;28;20058;-66
2021/01/04 02:30:05;;;;;;;8.30;6.47;;;4.80;93.40;;;;;;4993146;28;20027;-67
2021/01/04 02:32:30;;;;;;;7.65;6.85;;;4.80;93.30;;;;;;4993575;28;20137;-68
2021/01/04 02:34:57;;;;;;;8.27;6.63;;;4.80;93.30;;;;;;4975500;28;20050;-67
2021/01/04 02:37:25;;;;;;;8.73;6.57;;;4.70;93.30;;;;;;4992594;28;20033;-67
2021/01/04 02:39:55;;;;;;;9.35;6.88;;;4.80;93.40;;;;;;4993338;28;20489;-67
2021/01/04 02:42:28;;;;;;;6.80;5.88;;;4.80;93.40;;;;;;4992605;28;20085;-67
2021/01/04 02:44:54;;;;;;;9.32;7.07;;;4.80;93.40;;;;;;4993207;28;20474;-67
2021/01/04 02:47:24;;;;;;;6.88;6.18;;;4.80;93.50;;;;;;4992450;28;20045;-67
2021/01/04 02:50:18;;;;;;;6.97;5.68;;;4.80;93.30;;;;;;4993345;28;20023;-67
2021/01/04 02:53:09;;;;;;;9.77;6.75;;;4.80;93.30;;;;;;4975732;28;20118;-68
2021/01/04 02:55:59;;;;;;;7.90;6.13;;;4.80;93.40;;;;;;4992924;28;20054;-67
2021/01/04 02:58:45;;;;;;;7.60;6.50;;;4.80;93.30;;;;;;4992939;28;20041;-73
2021/01/04 03:01:17;;;;;;;7.18;6.03;;;4.80;93.30;;;;;;4992692;28;20509;-68
2021/01/04 03:03:45;;;;;;;;;;;4.80;93.30;;;;;;4993985;28;20022;-72
2021/01/04 03:06:18;;;;;;;8.60;6.32;;;4.80;93.30;;;;;;4992875;28;19917;-69
2021/01/04 03:08:43;;;;;;;7.22;6.00;;;4.70;93.20;;;;;;4991186;28;20451;-71
2021/01/04 03:11:15;;;;;;;7.38;5.90;;;4.60;93.30;;;;;;4992737;28;20042;-69
2021/01/04 03:13:55;;;;;;;7.18;5.80;;;4.70;93.50;;;;;;4993073;28;20030;-68
2021/01/04 03:16:58;;;;;;;7.32;5.80;;;4.70;93.50;;;;;;4992292;28;20061;-68
2021/01/04 03:19:29;;;;;;;8.07;7.00;;;4.70;93.50;;;;;;4992923;28;20116;-68
2021/01/04 03:22:00;;;;;;;6.50;5.60;;;4.70;93.50;;;;;;4993036;28;20029;-69
2021/01/04 03:24:26;;;;;;;6.65;5.78;;;4.70;93.50;;;;;;4992044;28;20383;-70
2021/01/04 03:26:57;;;;;;;8.07;6.07;;;4.70;93.60;;;;;;4991751;28;20049;-67
2021/01/04 03:29:23;;;;;;;5.73;5.20;;;4.70;93.50;;;;;;4992216;28;20533;-69
2021/01/04 03:31:48;;;;;;;6.63;5.90;;;4.60;93.60;;;;;;4992891;28;20062;-68
2021/01/04 03:34:14;;;;;;;7.07;6.18;;;4.60;93.50;;;;;;4992461;28;20026;-70
2021/01/04 03:36:39;;;;;;;6.25;5.65;;;4.60;93.60;;;;;;4992479;28;20034;-68
2021/01/04 03:39:05;;;;;;;7.35;6.00;;;4.60;93.60;;;;;;4992742;28;20034;-68
2021/01/04 03:41:30;;;;;;;6.80;6.10;;;4.60;93.50;;;;;;4991737;28;20023;-70
2021/01/04 03:43:57;;;;;;;7.00;6.00;;;4.60;93.50;;;;;;4992201;28;20439;-67
2021/01/04 03:46:22;;;;;;;7.35;6.10;;;4.60;93.50;;;;;;4992606;28;20034;-68
2021/01/04 03:48:48;;;;;;;5.72;5.20;;;4.60;93.70;;;;;;4992614;28;20027;-68
2021/01/04 03:51:13;;;;;;;5.45;4.95;;;4.60;93.60;;;;;;4995218;28;20037;-70
2021/01/04 03:53:42;;;;;;;6.22;5.63;;;4.60;93.80;;;;;;4996317;28;20026;-68
2021/01/04 03:56:14;;;;;;;6.10;5.50;;;4.60;93.50;;;;;;4998940;28;21162;-72
2021/01/04 03:58:39;;;;;;;7.88;5.47;;;4.50;93.50;;;;;;4995353;28;20031;-67
2021/01/04 04:01:05;;;;;;;6.53;5.50;;;4.60;93.60;;;;;;4994236;28;20040;-70
2021/01/04 04:03:30;;;;;;;5.85;5.25;;;4.60;93.60;;;;;;4996120;28;20015;-68
2021/01/04 04:05:56;;;;;;;6.00;5.35;;;4.60;93.60;;;;;;4995153;28;20482;-72
2021/01/04 04:08:21;;;;;;;5.72;5.15;;;4.60;93.60;;;;;;4996336;28;20014;-67
2021/01/04 04:10:47;;;;;;;5.35;4.60;;;4.70;93.60;;;;;;4996051;28;20450;-68
2021/01/04 04:13:12;;;;;;;6.30;5.65;;;4.60;93.60;;;;;;4995107;28;20072;-67
2021/01/04 04:15:38;;;;;;;6.25;5.45;;;4.60;93.60;;;;;;4995991;28;20054;-72
2021/01/04 04:18:03;;;;;;;5.93;5.32;;;4.50;93.60;;;;;;4995381;28;20054;-66
2021/01/04 04:20:29;;;;;;;6.30;5.70;;;4.50;93.60;;;;;;4995299;28;20022;-67
2021/01/04 04:22:55;;;;;;;6.82;5.47;;;4.50;93.60;;;;;;4995787;28;20018;-66
2021/01/04 04:25:24;;;;;;;6.13;5.15;;;4.50;93.50;;;;;;4995627;28;20034;-66
2021/01/04 04:27:56;;;;;;;5.38;4.55;;;4.50;93.60;;;;;;4994605;28;20055;-66
2021/01/04 04:30:24;;;;;;;5.63;5.07;;;4.60;93.70;;;;;;4994184;28;20022;-67
2021/01/04 04:32:57;;;;;;;6.80;5.10;;;4.60;93.70;;;;;;4993701;28;20110;-65
2021/01/04 04:35:24;;;;;;;5.75;5.25;;;4.60;93.70;;;;;;4995280;28;20026;-69
2021/01/04 04:37:49;;;;;;;5.65;5.03;;;4.70;93.80;;;;;;4994172;28;20032;-66
2021/01/04 04:40:27;;;;;;;6.07;5.28;;;4.70;93.80;;;;;;4994692;28;20109;-67
2021/01/04 04:42:55;;;;;;;5.40;4.90;;;4.70;93.70;;;;;;4995513;28;20029;-68
2021/01/04 04:45:21;;;;;;;7.55;5.10;;;4.70;93.70;;;;;;4994884;28;20038;-66
2021/01/04 04:48:24;;;;;;;7.20;5.60;;;4.60;93.70;;;;;;4994487;28;20418;-67
2021/01/04 04:50:57;;;;;;;6.78;4.57;;;4.70;93.80;;;;;;4995241;28;20034;-66
2021/01/04 04:53:40;;;;;;;5.95;5.15;;;4.70;93.70;;;;;;4995057;28;20446;-69
2021/01/04 04:56:14;;;;;;;6.68;5.25;;;4.70;93.60;;;;;;4994380;28;20034;-66
2021/01/04 04:58:48;;;;;;;7.03;6.32;;;4.60;93.60;;;;;;4995136;28;20076;-68
2021/01/04 05:01:40;;;;;;;6.28;5.38;;;4.60;93.70;;;;;;4994027;28;20026;-72
2021/01/04 05:04:05;;;;;;;6.13;5.50;;;4.60;93.80;;;;;;4995043;28;20062;-71
2021/01/04 05:06:55;;;;;;;6.53;5.82;;;4.70;93.80;;;;;;4993564;28;20073;-66
2021/01/04 05:09:33;;;;;;;7.25;5.40;;;4.60;93.80;;;;;;4976711;28;20080;-72
2021/01/04 05:12:17;;;;;;;7.07;5.70;;;4.70;93.80;;;;;;4995004;28;20026;-70
2021/01/04 05:14:53;;;;;;;7.28;6.30;;;4.60;93.70;;;;;;4993789;28;20378;-71
2021/01/04 05:17:37;;;;;;;7.70;5.90;;;4.60;94.00;;;;;;4994660;28;20054;-69
2021/01/04 05:20:09;;;;;;;7.22;5.57;;;4.60;93.80;;;;;;4994918;28;20494;-73
2021/01/04 05:23:19;;;;;;;8.23;6.35;;;4.60;93.80;;;;;;4994456;28;20058;-70
2021/01/04 05:26:22;;;;;;;6.65;5.97;;;4.60;93.80;;;;;;4994620;28;20085;-69
2021/01/04 05:29:20;;;;;;;6.72;6.03;;;4.60;93.80;;;;;;4994571;28;20557;-66
2021/01/04 05:32:17;;;;;;;7.53;5.95;;;4.60;93.70;;;;;;4973077;28;20039;-66
2021/01/04 05:34:53;;;;;;;8.52;6.43;;;4.60;93.60;;;;;;4994448;28;20030;-67
2021/01/04 05:37:31;;;;;;;6.88;6.18;;;4.60;93.70;;;;;;4992259;28;20015;-67
2021/01/04 05:40:18;;;;;;;6.57;5.28;;;4.60;93.80;;;;;;4994555;28;20057;-70
2021/01/04 05:43:11;;;;;;;8.23;6.25;;;4.70;93.80;;;;;;4993324;28;20026;-71
2021/01/04 05:45:45;;;;;;;7.28;6.07;;;4.70;93.80;;;;;;4994159;28;20085;-68
2021/01/04 05:48:32;;;;;;;7.90;6.53;;;4.70;93.90;;;;;;4994023;28;20033;-68
2021/01/04 05:51:19;;;;;;;7.05;6.22;;;4.70;93.90;;;;;;4993400;28;20092;-71
2021/01/04 05:53:44;;;;;;;6.50;5.80;;;4.70;94.00;;;;;;4994303;28;20367;-66
2021/01/04 05:56:17;;;;;;;7.40;6.70;;;4.80;94.00;;;;;;4994044;28;20019;-69
2021/01/04 05:58:43;;;;;;;7.53;6.03;;;4.80;94.00;;;;;;4992096;28;20038;-67
2021/01/04 06:01:15;;;;;;;9.57;6.03;;;4.80;93.90;;;;;;4993658;28;20026;-69
2021/01/04 06:03:40;;;;;;;;;;;4.70;93.90;;;;;;4994742;28;20034;-68
2021/01/04 06:06:48;;;;;;;8.02;6.10;;;4.80;94.00;;;;;;5006772;28;20349;-71
2021/01/04 06:09:15;;;;;;;8.52;5.78;;;4.70;93.90;;;;;;4991258;28;20045;-70
2021/01/04 06:11:51;;;;;;;8.30;5.88;;;4.80;93.90;;;;;;5007046;28;20030;-66
2021/01/04 06:14:17;;;;;;;7.72;6.13;;;4.80;93.90;;;;;;5012359;28;20017;-72
2021/01/04 06:16:45;;;;;;;146.60;12.70;;;4.80;94.00;;;;;;5013116;28;20025;-73
2021/01/04 06:19:14;;;;;;;7.63;5.78;;;4.80;94.00;;;;;;5012532;28;20026;-71
2021/01/04 06:21:50;;;;;;;29.45;6.13;;;4.80;93.90;;;;;;4995611;28;20080;-72
2021/01/04 06:24:27;;;;;;;9.48;6.85;;;4.80;94.00;;;;;;5011485;28;20021;-68
2021/01/04 06:26:56;;;;;;;9.43;5.60;;;4.80;94.00;;;;;;4994471;28;20054;-71
2021/01/04 06:29:30;;;;;;;9.02;6.65;;;4.80;93.90;;;;;;5013494;28;20037;-67
2021/01/04 06:31:58;;;;;;;116.35;10.98;;;4.80;94.00;;;;;;5012787;28;20026;-66
2021/01/04 06:34:28;;;;;;;10.27;7.47;;;4.80;93.90;;;;;;5011974;28;20037;-71
2021/01/04 06:36:57;;;;;;;406.70;27.98;;;4.90;93.90;;;;;;5012665;28;20029;-67
2021/01/04 06:39:33;;;;;;;17.58;7.15;;;4.90;93.90;;;;;;5012201;28;20026;-68
2021/01/04 06:42:18;;;;;;;11.95;7.03;;;4.90;93.90;;;;;;5013050;28;20113;-68
2021/01/04 06:45:10;;;;;;;11.88;7.57;;;5.00;93.80;;;;;;5012718;28;20026;-69
2021/01/04 06:47:45;;;;;;;9.27;7.32;;;5.00;93.60;;;;;;5012406;28;20041;-69
2021/01/04 06:50:19;;;;;;;271.60;20.73;;;5.10;93.60;;;;;;5012665;28;20073;-71
2021/01/04 06:53:15;;;;;;;9.77;7.60;;;5.20;93.60;;;;;;5011756;28;20033;-70
2021/01/04 06:56:09;;;;;;;8.85;7.95;;;5.20;93.40;;;;;;5012290;28;20030;-70
2021/01/04 06:58:54;;;;;;;9.82;7.70;;;5.20;93.30;;;;;;5012986;28;20037;-72
2021/01/04 07:01:50;;;;;;;11.13;8.60;;;5.20;93.30;;;;;;4995039;28;20029;-76
2021/01/04 07:04:40;;;;;;;11.10;9.60;;;5.20;93.20;;;;;;5012474;28;20034;-74
2021/01/04 07:07:34;;;;;;;89.20;12.70;;;5.20;93.10;;;;;;4995006;28;20034;-78
2021/01/04 07:10:15;;;;;;;12.63;9.82;;;5.10;92.90;;;;;;5013124;28;20034;-72
2021/01/04 07:13:00;;;;;;;16.10;8.70;;;5.20;93.00;;;;;;5012239;28;20033;-69
2021/01/04 07:15:30;;;;;;;10.20;9.05;;;5.10;93.00;;;;;;5012127;28;20026;-74
2021/01/04 07:18:12;;;;;;;10.88;9.73;;;5.10;93.10;;;;;;5012785;28;20014;-78
2021/01/04 07:20:58;;;;;;;10.48;8.30;;;5.10;93.10;;;;;;5011293;28;20053;-72
2021/01/04 07:23:51;;;;;;;11.25;9.60;;;5.10;93.20;;;;;;5012167;28;20474;-69
2021/01/04 07:26:23;;;;;;;9.73;8.25;;;5.20;93.10;;;;;;5015761;28;20038;-68
2021/01/04 07:28:49;;;;;;;;;;;5.20;92.80;;;;;;5014993;28;20037;-68
2021/01/04 07:31:24;;;;;;;11.48;8.02;;;5.10;92.80;;;;;;5014762;28;20277;-72
2021/01/04 07:33:56;;;;;;;10.40;8.05;;;5.10;92.90;;;;;;4998969;28;20037;-72
2021/01/04 07:36:30;;;;;;;9.40;8.18;;;5.10;92.90;;;;;;5015764;28;20018;-70
2021/01/04 07:39:30;;;;;;;10.75;8.90;;;5.20;92.90;;;;;;5016629;28;20029;-71
2021/01/04 07:42:34;;;;;;;9.93;7.93;;;5.20;92.90;;;;;;5016362;28;20049;-68
2021/01/04 07:45:43;;;;;;;9.52;8.50;;;5.10;92.80;;;;;;5013584;28;20486;-70
2021/01/04 07:48:23;;;;;;;11.68;8.63;;;5.20;92.90;;;;;;5015657;28;20030;-69
2021/01/04 07:51:13;;;;;;;9.75;8.18;;;5.20;92.90;;;;;;5015355;28;20037;-68
2021/01/04 07:53:42;;;;;;;10.10;7.70;;;5.10;93.00;;;;;;4998705;28;20066;-69
2021/01/04 07:56:38;;;;;;;11.50;8.30;;;5.10;93.10;;;;;;4998117;28;20050;-68
2021/01/04 07:59:43;;;;;;;9.80;7.65;;;5.10;92.90;;;;;;5015673;28;20041;-68
2021/01/04 08:02:18;;;;;;;8.60;7.55;;;5.10;92.90;;;;;;5015790;28;20029;-69
2021/01/04 08:05:35;;;;;;;8.65;6.95;;;5.10;92.80;;;;;;5015230;28;20025;-71
2021/01/04 08:08:06;;;;;;;10.15;6.93;;;5.10;92.80;;;;;;4972322;28;20049;-68
2021/01/04 08:10:57;;;;;;;10.77;7.90;;;5.00;92.80;;;;;;5016020;28;20022;-70
2021/01/04 08:13:58;;;;;;;10.13;7.72;;;5.00;93.00;;;;;;5015574;28;20105;-70
2021/01/04 08:16:39;;;;;;;10.52;7.90;;;5.10;93.10;;;;;;5015486;28;20478;-69
2021/01/04 08:19:08;;;;;;;11.70;7.70;;;5.20;93.10;;;;;;5014724;28;20491;-69
2021/01/04 08:21:42;;;;;;;10.07;7.45;;;5.20;93.10;;;;;;4998216;28;20018;-68
2021/01/04 08:24:35;;;;;;;9.75;7.60;;;5.20;93.00;;;;;;5015390;28;20428;-69
2021/01/04 08:27:45;;;;;;;8.15;7.25;;;5.20;93.00;;;;;;4996839;28;20050;-68
2021/01/04 08:30:19;;;;;;;9.48;7.40;;;5.20;93.10;;;;;;4999337;28;20045;-69
2021/01/04 08:33:21;;;;;;;8.82;7.40;;;5.20;93.30;;;;;;5014781;28;20061;-68
2021/01/04 08:35:47;;;;;;;9.13;7.60;;;5.20;92.90;;;;;;5014329;28;20088;-70
2021/01/04 08:38:19;;;;;;;11.82;8.38;;;5.20;93.10;;;;;;5014762;28;20493;-68
2021/01/04 08:41:11;;;;;;;10.65;8.05;;;5.10;93.00;;;;;;5014461;28;20479;-68
2021/01/04 08:43:45;;;;;;;10.02;8.45;;;5.20;93.20;;;;;;5015489;28;20463;-69
2021/01/04 08:46:23;;;;;;;8.82;7.93;;;5.20;93.10;;;;;;5014048;28;20502;-68
2021/01/04 08:48:54;;;;;;;10.02;8.35;;;5.20;93.10;;;;;;4997408;28;20040;-67
2021/01/04 08:51:41;;;;;;;8.98;7.72;;;5.20;93.20;;;;;;5014530;28;20355;-69
2021/01/04 08:54:27;;;;;;;10.10;7.90;;;5.20;93.10;;;;;;4996588;28;20108;-70
2021/01/04 08:57:24;;;;;;;8.18;6.72;;;5.20;93.10;;;;;;5014623;28;20080;-69
2021/01/04 08:59:59;;;;;;;10.68;8.27;;;5.20;93.20;;;;;;5014968;28;20030;-69
2021/01/04 09:02:42;;;;;;;11.38;8.40;;;5.20;93.20;;;;;;5014528;28;20014;-72
2021/01/04 09:05:10;;;;;;;13.27;8.60;;;5.30;93.20;;;;;;5014377;28;20121;-69
2021/01/04 09:07:50;;;;;;;12.88;8.65;;;5.30;93.20;;;;;;5014361;28;20029;-69
2021/01/04 09:10:22;;;;;;;12.85;8.27;;;5.30;93.30;;;;;;5014514;28;20573;-68
2021/01/04 09:12:52;;;;;;;12.50;8.05;;;5.30;93.30;;;;;;5014787;28;20058;-68
2021/01/04 09:15:23;;;;;;;10.98;8.13;;;5.30;93.30;;;;;;5013939;28;20435;-68
2021/01/04 09:18:00;;;;;;;14.63;8.90;;;5.40;93.20;;;;;;5014224;28;20109;-68
2021/01/04 09:20:43;;;;;;;13.40;8.25;;;5.40;93.30;;;;;;5014209;28;20030;-68
2021/01/04 09:23:22;;;;;;;12.55;9.23;;;5.40;93.30;;;;;;4995717;28;20386;-69
2021/01/04 09:26:02;;;;;;;9.85;8.20;;;5.50;93.30;;;;;;5014284;28;20426;-70
2021/01/04 09:28:48;;;;;;;10.32;8.38;;;5.50;93.20;;;;;;5013330;28;20046;-69
2021/01/04 09:31:17;;;;;;;10.23;8.00;;;5.40;93.20;;;;;;5013846;28;20030;-70
2021/01/04 09:33:48;;;;;;;13.23;8.45;;;5.50;93.30;;;;;;5014086;28;20470;-69
2021/01/04 09:36:15;;;;;;;11.43;8.32;;;5.50;93.20;;;;;;5013225;28;20034;-71
2021/01/04 09:38:41;;;;;;;13.30;7.97;;;5.60;93.10;;;;;;5014253;28;20025;-69
2021/01/04 09:41:10;;;;;;;12.38;8.52;;;5.50;93.00;;;;;;5013713;28;20022;-69
2021/01/04 09:43:37;;;;;;;10.88;7.75;;;5.60;93.00;;;;;;5013450;28;20030;-69
2021/01/04 09:46:23;;;;;;;12.48;8.70;;;5.60;93.10;;;;;;5013908;28;20037;-69
2021/01/04 09:48:59;;;;;;;8.68;7.10;;;5.60;93.20;;;;;;5013431;28;20026;-70
2021/01/04 09:51:54;;;;;;;10.05;8.75;;;5.70;93.10;;;;;;4995540;28;20018;-69
2021/01/04 09:54:27;;;;;;;13.48;8.57;;;5.70;93.00;;;;;;5007824;28;20061;-70
2021/01/04 09:56:59;;;;;;;10.85;8.45;;;5.70;93.00;;;;;;4995424;28;20061;-68
2021/01/04 09:59:25;;;;;;;11.13;8.05;;;5.70;93.00;;;;;;4995904;28;20014;-69
2021/01/04 10:01:52;;;;;;;12.15;8.30;;;5.70;92.90;;;;;;5013973;28;20436;-68
2021/01/04 10:04:37;;;;;;;10.18;8.10;;;5.70;92.90;;;;;;5012639;28;20033;-69
2021/01/04 10:07:07;;;;;;;14.13;8.02;;;5.60;92.90;;;;;;5013438;28;20026;-68
2021/01/04 10:09:37;;;;;;;9.15;6.82;;;5.60;92.80;;;;;;5013412;28;20030;-69
2021/01/04 10:12:05;;;;;;;10.98;7.38;;;5.60;92.90;;;;;;4995136;28;20408;-69
2021/01/04 10:14:32;;;;;;;8.57;7.50;;;5.70;93.00;;;;;;4995774;28;20482;-68
2021/01/04 10:16:59;;;;;;;9.15;7.10;;;5.70;92.90;;;;;;5013050;28;20034;-70
2021/01/04 10:19:38;;;;;;;8.45;7.47;;;5.70;92.80;;;;;;5012433;28;20030;-71
2021/01/04 10:22:28;;;;;;;11.43;7.78;;;5.60;92.60;;;;;;5012922;28;20022;-69
2021/01/04 10:25:08;;;;;;;8.10;6.68;;;5.60;92.60;;;;;;5012546;28;20041;-71
2021/01/04 10:27:34;;;;;;;8.73;7.30;;;5.60;92.70;;;;;;5013036;28;20046;-71
2021/01/04 10:30:06;;;;;;;7.90;6.28;;;5.60;92.80;;;;;;4995818;28;20037;-70
2021/01/04 10:32:36;;;;;;;8.50;7.28;;;5.70;92.80;;;;;;5012813;28;20045;-72
2021/01/04 10:35:03;;;;;;;7.72;6.93;;;5.70;92.70;;;;;;4995293;28;20029;-70
2021/01/04 10:37:50;;;;;;;8.43;5.90;;;5.70;92.50;;;;;;5012990;28;20080;-70
2021/01/04 10:40:19;;;;;;;88.55;10.57;;;5.60;92.20;;;;;;4994457;28;20032;-71
2021/01/04 10:42:47;;;;;;;10.20;6.70;;;5.50;92.60;;;;;;5013065;28;20072;-70
2021/01/04 10:45:18;;;;;;;7.68;5.80;;;5.60;92.70;;;;;;5012703;28;20026;-68
2021/01/04 10:48:07;;;;;;;7.95;6.55;;;5.60;92.70;;;;;;4994556;28;20076;-69
2021/01/04 10:50:35;;;;;;;8.35;5.85;;;5.50;92.50;;;;;;5013008;28;20018;-69
2021/01/04 10:53:05;;;;;;;8.60;5.88;;;5.40;92.50;;;;;;5012213;28;20069;-70
2021/01/04 10:55:34;;;;;;;7.40;6.28;;;5.40;92.50;;;;;;5012722;28;20034;-67
2021/01/04 10:58:13;;;;;;;7.88;6.28;;;5.30;92.60;;;;;;5012509;28;20591;-70
2021/01/04 11:00:47;;;;;;;11.05;6.85;;;5.20;92.80;;;;;;5012164;28;20486;-70
2021/01/04 11:03:15;;;;;;;6.57;5.93;;;5.20;93.10;;;;;;5012668;28;20022;-69
2021/01/04 11:05:44;;;;;;;8.75;6.95;;;5.30;92.90;;;;;;5012707;28;20509;-69
2021/01/04 11:08:12;;;;;;;9.07;6.18;;;5.30;92.90;;;;;;5011817;28;20022;-69
2021/01/04 11:10:37;;;;;;;28.85;6.05;;;5.20;92.80;;;;;;5012699;28;20033;-69
2021/01/04 11:13:03;;;;;;;8.35;5.38;;;5.20;92.80;;;;;;5012686;28;20030;-68
2021/01/04 11:15:32;;;;;;;7.40;5.85;;;5.20;92.80;;;;;;5011988;28;20030;-68
2021/01/04 11:18:06;;;;;;;6.45;5.32;;;5.20;92.80;;;;;;4995187;28;20429;-68
2021/01/04 11:20:34;;;;;;;5.88;5.28;;;5.20;93.00;;;;;;5012445;28;20423;-69
2021/01/04 11:23:15;;;;;;;7.60;5.40;;;5.20;92.90;;;;;;5012611;28;20049;-68
2021/01/04 11:25:44;;;;;;;7.30;5.50;;;5.20;92.80;;;;;;5012544;28;20040;-69
2021/01/04 11:28:10;;;;;;;7.65;5.20;;;5.20;93.00;;;;;;4993818;28;20490;-68
2021/01/04 11:30:35;;;;;;;9.23;6.07;;;5.20;92.90;;;;;;4994882;28;20049;-68
2021/01/04 11:33:02;;;;;;;8.27;5.13;;;5.20;93.10;;;;;;5012295;28;20097;-68
2021/01/04 11:35:28;;;;;;;5.95;4.65;;;5.20;93.00;;;;;;5011433;28;20022;-67
2021/01/04 11:37:55;;;;;;;5.32;4.70;;;5.20;93.00;;;;;;5012344;28;20072;-68
2021/01/04 11:40:20;;;;;;;6.15;4.80;;;5.20;92.90;;;;;;5012398;28;20034;-68
2021/01/04 11:42:47;;;;;;;6.00;4.85;;;5.20;93.00;;;;;;5011675;28;20022;-68
2021/01/04 11:45:15;;;;;;;6.80;5.35;;;5.30;92.90;;;;;;5012096;28;20034;-68
2021/01/04 11:47:41;;;;;;;7.50;5.18;;;5.30;92.60;;;;;;4994797;28;20030;-69
2021/01/04 11:50:08;;;;;;;9.13;5.32;;;5.30;92.90;;;;;;5011400;28;20022;-69
2021/01/04 11:52:38;;;;;;;5.55;5.00;;;5.30;92.90;;;;;;4994883;28;20362;-71
2021/01/04 11:55:08;;;;;;;6.22;5.07;;;5.20;92.50;;;;;;5012227;28;20025;-69
2021/01/04 11:57:33;;;;;;;6.45;5.18;;;5.20;92.60;;;;;;5011491;28;20109;-68
2021/01/04 11:59:59;;;;;;;8.05;5.28;;;5.10;92.70;;;;;;5012308;28;20060;-69
2021/01/04 12:02:24;;;;;;;5.82;4.47;;;5.10;92.70;;;;;;5011939;28;20105;-69
2021/01/04 12:04:50;;;;;;;5.78;4.68;;;5.10;92.70;;;;;;5011436;28;20033;-68
2021/01/04 12:07:16;;;;;;;6.82;6.13;;;5.10;92.70;;;;;;5011968;28;20076;-69
2021/01/04 12:09:41;;;;;;;9.23;5.45;;;5.10;92.80;;;;;;5012264;28;20021;-68
2021/01/04 12:12:08;;;;;;;5.35;4.85;;;5.10;92.80;;;;;;5014124;28;20034;-72
2021/01/04 12:14:33;;;;;;;6.50;4.55;;;5.20;92.80;;;;;;5015697;28;20045;-68
2021/01/04 12:17:08;;;;;;;5.65;4.50;;;5.20;92.80;;;;;;5015029;28;20421;-70
2021/01/04 12:19:34;;;;;;;6.93;4.65;;;5.10;92.40;;;;;;5015815;28;20035;-70
2021/01/04 12:22:04;;;;;;;7.70;5.72;;;5.10;92.50;;;;;;5015657;28;20030;-69
2021/01/04 12:24:30;;;;;;;8.93;4.82;;;5.10;92.70;;;;;;5015057;28;20053;-70
2021/01/04 12:26:56;;;;;;;8.30;4.97;;;5.10;92.50;;;;;;5015046;28;20131;-70
2021/01/04 12:29:21;;;;;;;6.63;4.72;;;5.10;92.40;;;;;;5015110;28;20022;-69
2021/01/04 12:31:47;;;;;;;5.97;4.30;;;5.10;92.30;;;;;;5014414;28;20022;-69
2021/01/04 12:34:13;;;;;;;4.63;3.97;;;5.10;92.20;;;;;;5014714;28;20033;-68
2021/01/04 12:36:39;;;;;;;5.55;4.88;;;5.10;92.20;;;;;;5015332;28;20033;-69
2021/01/04 12:39:05;;;;;;;6.72;4.63;;;5.20;92.30;;;;;;5014148;28;20030;-69
2021/01/04 12:41:37;;;;;;;7.22;5.25;;;5.20;92.20;;;;;;5015125;28;20033;-69
2021/01/04 12:44:03;;;;;;;5.50;4.13;;;5.20;92.40;;;;;;5014921;28;20470;-67
2021/01/04 12:46:28;;;;;;;7.05;4.45;;;5.20;92.00;;;;;;4996496;28;20033;-70
2021/01/04 12:48:54;;;;;;;5.68;4.50;;;5.20;91.90;;;;;;5014831;28;20033;-72
2021/01/04 12:51:19;;;;;;;6.47;4.35;;;5.10;91.70;;;;;;5014713;28;20092;-71
2021/01/04 12:53:45;;;;;;;4.88;4.20;;;5.00;91.90;;;;;;4996777;28;20052;-70
2021/01/04 12:56:12;;;;;;;5.15;4.25;;;5.00;91.90;;;;;;4997160;28;20110;-68
2021/01/04 12:58:42;;;;;;;9.52;4.85;;;5.10;92.10;;;;;;5014859;28;20056;-68
2021/01/04 13:01:07;;;;;;;5.55;4.47;;;5.10;92.00;;;;;;4996210;28;20049;-68
2021/01/04 13:03:33;;;;;;;5.18;4.25;;;5.10;91.90;;;;;;5014572;28;20021;-68
2021/01/04 13:05:58;;;;;;;5.13;4.32;;;5.10;92.00;;;;;;5014717;28;20120;-67
2021/01/04 13:08:24;;;;;;;6.60;4.18;;;5.10;92.00;;;;;;5013717;28;20030;-68
2021/01/04 13:10:49;;;;;;;5.22;3.92;;;5.00;91.80;;;;;;5014678;28;20056;-67
2021/01/04 13:13:15;;;;;;;7.25;4.00;;;5.00;92.00;;;;;;4996093;28;20425;-67
2021/01/04 13:15:40;;;;;;;5.97;4.10;;;5.00;92.00;;;;;;5014415;28;20026;-68
2021/01/04 13:18:06;;;;;;;6.60;4.13;;;5.00;92.30;;;;;;5014001;28;20025;-68
2021/01/04 13:20:31;;;;;;;9.13;6.20;;;5.00;91.80;;;;;;5014059;28;20076;-67
2021/01/04 13:22:57;;;;;;;6.15;3.72;;;5.00;91.80;;;;;;5013918;28;20026;-67
2021/01/04 13:25:22;;;;;;;5.80;3.80;;;5.00;92.00;;;;;;5014282;28;20131;-67
2021/01/04 13:27:48;;;;;;;5.20;4.25;;;5.00;91.90;;;;;;5013483;28;20038;-70
2021/01/04 13:30:14;;;;;;;4.60;3.95;;;5.00;91.80;;;;;;5014185;28;20385;-71
2021/01/04 13:32:39;;;;;;;6.43;4.25;;;5.00;91.80;;;;;;5014218;28;20088;-71
2021/01/04 13:35:06;;;;;;;6.82;3.92;;;4.90;91.40;;;;;;5013201;28;20478;-69
2021/01/04 13:37:32;;;;;;;5.47;3.85;;;4.90;91.70;;;;;;5013994;28;20037;-71